createdAt,value
2023-01-07T00:01:33.021Z,100330.28
2023-01-07T00:04:01.744Z,100326.59
2023-01-07T00:06:35.669Z,100321.25
2023-01-07T00:09:05.263Z,100320.25
2023-01-07T00:11:36.004Z,100322.91
2023-01-07T00:14:06.229Z,100316.56
2023-01-07T00:16:35.185Z,100312.25
2023-01-07T00:19:04.894Z,100300.94
2023-01-07T00:21:32.508Z,100303.63
2023-01-07T00:24:03.270Z,100298.28
2023-01-07T00:26:36.406Z,100294.94
2023-01-07T00:29:06.079Z,100295.78
2023-01-07T00:31:37.197Z,100285.97
2023-01-07T00:34:04.282Z,100293.97
2023-01-07T00:36:39.165Z,100294.94
2023-01-07T00:39:21.107Z,100278.94
2023-01-07T00:42:07.940Z,100288.63
2023-01-07T00:44:35.321Z,100280.63
2023-01-07T00:47:02.295Z,100273.63
2023-01-07T00:49:29.604Z,100276.28
2023-01-07T00:51:56.564Z,100272.78
2023-01-07T00:54:24.512Z,100264.97
2023-01-07T00:56:51.506Z,100264.97
2023-01-07T00:59:18.625Z,100257.97
2023-01-07T01:01:47.681Z,100257.16
2023-01-07T01:04:15.214Z,100261.66
2023-01-07T01:06:42.220Z,100258.16
2023-01-07T01:09:09.178Z,100257.34
2023-01-07T01:11:36.133Z,100257.34
2023-01-07T01:14:03.045Z,100253.03
2023-01-07T01:16:30.051Z,100250.34
2023-01-07T01:18:57.108Z,100253.03
2023-01-07T01:21:24.064Z,100247.69
2023-01-07T01:23:51.451Z,100242.34
2023-01-07T01:26:18.638Z,100244.84
2023-01-07T01:28:46.352Z,100245.66
2023-01-07T01:31:18.183Z,100254.31
2023-01-07T01:33:48.520Z,100246.13
2023-01-07T01:36:16.905Z,100251.31
2023-01-07T01:38:43.909Z,100247.63
2023-01-07T01:41:16.233Z,100247.63
2023-01-07T01:43:45.606Z,100245.59
2023-01-07T01:46:36.700Z,100239.63
2023-01-07T01:49:18.343Z,100244.97
2023-01-07T01:51:54.403Z,100247.63
2023-01-07T01:54:21.541Z,100248.63
2023-01-07T01:56:54.678Z,100243.31
2023-01-07T01:59:26.884Z,100239.81
2023-01-07T02:01:56.798Z,100233.63
2023-01-07T02:04:27.214Z,100230.13
2023-01-07T02:07:10.187Z,100236.66
2023-01-07T02:09:40.887Z,100235.00
2023-01-07T02:12:16.235Z,100232.34
2023-01-07T02:15:16.475Z,100225.50
2023-01-07T02:18:19.689Z,100224.69
2023-01-07T02:20:56.960Z,100219.53
2023-01-07T02:24:16.793Z,100221.38
2023-01-07T02:27:00.119Z,100221.19
2023-01-07T02:30:11.922Z,100216.88
2023-01-07T02:33:26.022Z,100213.38
2023-01-07T02:36:22.156Z,100208.03
2023-01-07T02:39:23.167Z,100202.06
2023-01-07T02:42:06.784Z,100202.06
2023-01-07T02:45:12.610Z,100194.06
2023-01-07T02:47:52.295Z,100186.06
2023-01-07T02:50:19.939Z,100197.56
2023-01-07T02:52:47.025Z,100190.41
2023-01-07T02:55:19.274Z,100171.75
2023-01-07T02:58:09.245Z,100175.22
2023-01-07T03:01:15.047Z,100173.59
2023-01-07T03:04:22.829Z,100171.09
2023-01-07T03:07:55.549Z,100162.09
2023-01-07T03:10:29.985Z,100165.59
2023-01-07T03:13:05.206Z,100167.44
2023-01-07T03:16:22.684Z,100156.75
2023-01-07T03:19:11.467Z,100157.78
2023-01-07T03:21:38.869Z,100154.28
2023-01-07T03:24:08.574Z,100147.13
2023-01-07T03:26:42.693Z,100152.44
2023-01-07T03:29:13.616Z,100152.44
2023-01-07T03:31:51.495Z,100149.78
2023-01-07T03:34:22.891Z,100147.94
2023-01-07T03:36:58.321Z,100139.94
2023-01-07T03:39:29.335Z,100145.28
2023-01-07T03:42:15.784Z,100146.09
2023-01-07T03:44:43.542Z,100140.78
2023-01-07T03:47:12.339Z,100138.09
2023-01-07T03:49:39.997Z,100141.78
2023-01-07T03:52:07.314Z,100136.28
2023-01-07T03:54:34.345Z,100135.25
2023-01-07T03:57:01.337Z,100115.13
2023-01-07T03:59:28.289Z,100120.47
2023-01-07T04:01:56.199Z,100115.28
2023-01-07T04:04:23.268Z,100109.97
2023-01-07T04:06:50.391Z,100110.16
2023-01-07T04:09:21.830Z,100117.94
2023-01-07T04:11:48.876Z,100115.47
2023-01-07T04:14:15.953Z,100113.63
2023-01-07T04:16:43.458Z,100111.16
2023-01-07T04:19:10.530Z,100102.97
2023-01-07T04:21:37.533Z,100107.84
2023-01-07T04:24:07.075Z,100098.19
2023-01-07T04:26:35.337Z,100094.72
2023-01-07T04:29:03.104Z,100090.38
2023-01-07T04:31:30.128Z,100088.72
2023-01-07T04:33:57.581Z,100086.06
2023-01-07T04:36:25.168Z,100085.22
2023-01-07T04:38:52.159Z,100080.91
2023-01-07T04:41:19.498Z,100081.91
2023-01-07T04:43:46.540Z,100080.91
2023-01-07T04:46:13.648Z,100080.06
2023-01-07T04:48:40.829Z,100078.44
2023-01-07T04:51:07.821Z,100078.44
2023-01-07T04:53:34.831Z,100073.75
2023-01-07T04:56:02.893Z,100072.91
2023-01-07T04:58:30.079Z,100070.25
2023-01-07T05:00:59.732Z,100070.25
2023-01-07T05:03:28.357Z,100068.59
2023-01-07T05:05:55.904Z,100065.09
2023-01-07T05:08:22.825Z,100059.59
2023-01-07T05:10:50.460Z,100066.56
2023-01-07T05:13:19.958Z,100053.25
2023-01-07T05:15:47.661Z,100055.09
2023-01-07T05:18:17.030Z,100050.59
2023-01-07T05:20:47.754Z,100049.75
2023-01-07T05:23:14.750Z,100042.78
2023-01-07T05:25:43.363Z,100043.59
2023-01-07T05:28:11.962Z,100042.59
2023-01-07T05:30:40.029Z,100039.09
2023-01-07T05:33:07.471Z,100045.44
2023-01-07T05:35:35.736Z,100036.63
2023-01-07T05:38:03.327Z,100032.13
2023-01-07T05:40:30.874Z,100033.78
2023-01-07T05:42:57.835Z,100024.94
2023-01-07T05:45:27.050Z,100023.09
2023-01-07T05:47:53.993Z,100024.94
2023-01-07T05:50:21.070Z,100016.97
2023-01-07T05:52:51.817Z,100015.31
2023-01-07T05:55:19.120Z,100017.97
2023-01-07T05:57:46.075Z,100013.66
2023-01-07T06:00:14.418Z,100012.63
2023-01-07T06:02:41.419Z,100010.16
2023-01-07T06:05:09.181Z,100006.66
2023-01-07T06:07:36.499Z,100012.00
2023-01-07T06:10:04.176Z,99999.66
2023-01-07T06:12:31.572Z,100001.69
2023-01-07T06:14:58.492Z,100007.03
2023-01-07T06:17:25.510Z,99993.06
2023-01-07T06:19:52.506Z,100009.03
2023-01-07T06:22:19.416Z,100009.03
2023-01-07T06:24:46.325Z,100007.41
2023-01-07T06:27:13.264Z,99999.41
2023-01-07T06:29:40.329Z,100005.72
2023-01-07T06:32:07.395Z,99997.72
2023-01-07T06:34:34.386Z,99998.72
2023-01-07T06:37:01.897Z,99999.75
2023-01-07T06:39:28.885Z,99993.78
2023-01-07T06:41:55.829Z,99986.81
2023-01-07T06:44:22.746Z,99986.13
2023-01-07T06:46:49.663Z,99982.50
2023-01-07T06:49:16.764Z,99979.16
2023-01-07T06:51:43.725Z,99979.16
2023-01-07T06:54:10.999Z,99981.00
2023-01-07T06:56:38.019Z,99967.03
2023-01-07T06:59:04.991Z,99968.06
2023-01-07T07:01:32.041Z,99962.88
2023-01-07T07:03:59.044Z,99964.56
2023-01-07T07:06:26.033Z,99962.06
2023-01-07T07:08:53.050Z,99965.72
2023-01-07T07:11:19.984Z,99959.56
2023-01-07T07:13:46.946Z,99964.91
2023-01-07T07:16:13.868Z,99956.91
2023-01-07T07:18:40.852Z,99959.56
2023-01-07T07:21:07.853Z,99960.59
2023-01-07T07:23:34.789Z,99949.13
2023-01-07T07:26:01.765Z,99957.94
2023-01-07T07:28:28.759Z,99947.28
2023-01-07T07:30:55.795Z,99946.44
2023-01-07T07:33:22.711Z,99957.94
2023-01-07T07:35:49.722Z,99949.94
2023-01-07T07:38:18.371Z,99942.78
2023-01-07T07:40:46.675Z,99941.94
2023-01-07T07:43:14.873Z,99939.09
2023-01-07T07:45:42.494Z,99939.28
2023-01-07T07:48:12.050Z,99942.78
2023-01-07T07:50:38.982Z,99939.28
2023-01-07T07:53:09.769Z,99928.44
2023-01-07T07:55:38.636Z,99927.63
2023-01-07T07:58:06.282Z,99919.44
2023-01-07T08:00:33.704Z,99927.28
2023-01-07T08:03:01.310Z,99924.59
2023-01-07T08:05:28.735Z,99923.59
2023-01-07T08:07:56.578Z,99914.94
2023-01-07T08:10:27.025Z,99918.44
2023-01-07T08:12:53.971Z,99911.28
2023-01-07T08:15:20.933Z,99908.63
2023-01-07T08:17:47.908Z,99910.28
2023-01-07T08:20:14.811Z,99906.78
2023-01-07T08:22:41.811Z,99904.94
2023-01-07T08:25:09.295Z,99907.41
2023-01-07T08:27:36.255Z,99910.09
2023-01-07T08:30:03.531Z,99905.59
2023-01-07T08:32:30.573Z,99904.56
2023-01-07T08:34:57.756Z,99897.41
2023-01-07T08:37:24.656Z,99903.56
2023-01-07T08:39:51.553Z,99896.38
2023-01-07T08:42:18.517Z,99903.22
2023-01-07T08:44:45.520Z,99897.06
2023-01-07T08:47:12.482Z,99903.84
2023-01-07T08:49:39.559Z,99902.00
2023-01-07T08:52:06.519Z,99899.16
2023-01-07T08:54:33.483Z,99905.13
2023-01-07T08:57:00.418Z,99891.81
2023-01-07T08:59:27.311Z,99895.13
2023-01-07T09:01:54.290Z,99902.09
2023-01-07T09:04:21.248Z,99894.78
2023-01-07T09:06:48.164Z,99891.09
2023-01-07T09:09:16.523Z,99882.09
2023-01-07T09:11:43.468Z,99878.41
2023-01-07T09:14:10.534Z,99876.75
2023-01-07T09:16:37.455Z,99890.72
2023-01-07T09:19:04.647Z,99873.69
2023-01-07T09:21:31.596Z,99874.38
2023-01-07T09:23:58.576Z,99875.00
2023-01-07T09:26:25.516Z,99867.81
2023-01-07T09:28:52.428Z,99871.94
2023-01-07T09:31:20.065Z,99870.97
2023-01-07T09:33:47.001Z,99864.63
2023-01-07T09:36:14.011Z,99864.63
2023-01-07T09:38:41.004Z,99858.28
2023-01-07T09:41:53.818Z,99858.91
2023-01-07T09:44:54.016Z,99858.91
2023-01-07T09:47:24.863Z,99854.22
2023-01-07T09:49:58.358Z,99847.69
2023-01-07T09:52:41.867Z,99843.81
2023-01-07T09:55:33.329Z,99849.78
2023-01-07T09:58:00.539Z,99852.09
2023-01-07T10:00:30.462Z,99841.03
2023-01-07T10:03:36.886Z,99846.00
2023-01-07T10:06:48.843Z,99841.31
2023-01-07T10:09:41.190Z,99839.28
2023-01-07T10:12:21.897Z,99829.28
2023-01-07T10:15:03.823Z,99825.19
2023-01-07T10:18:06.107Z,99823.19
2023-01-07T10:20:59.709Z,99825.47
2023-01-07T10:23:31.933Z,99819.13
2023-01-07T10:26:01.412Z,99814.59
2023-01-07T10:28:50.583Z,99801.09
2023-01-07T10:31:25.868Z,99806.25
2023-01-07T10:33:57.171Z,99805.03
2023-01-07T10:36:33.385Z,99796.00
2023-01-07T10:39:18.419Z,99799.50
2023-01-07T10:41:57.214Z,99791.75
2023-01-07T10:44:55.896Z,99803.25
2023-01-07T10:47:37.531Z,99783.75
2023-01-07T10:50:35.355Z,99785.84
2023-01-07T10:53:43.295Z,99773.34
2023-01-07T10:56:42.335Z,99771.09
2023-01-07T10:59:20.604Z,99770.13
2023-01-07T11:01:59.270Z,99757.41
2023-01-07T11:04:26.652Z,99764.19
2023-01-07T11:06:59.279Z,99757.00
2023-01-07T11:09:35.324Z,99752.94
2023-01-07T11:12:32.553Z,99734.06
2023-01-07T11:15:03.639Z,99734.53
2023-01-07T11:17:37.680Z,99731.44
2023-01-07T11:20:06.205Z,99730.06
2023-01-07T11:22:36.849Z,99727.00
2023-01-07T11:25:28.136Z,99718.63
2023-01-07T11:28:03.073Z,99717.63
2023-01-07T11:30:33.210Z,99710.22
2023-01-07T11:33:06.781Z,99705.34
2023-01-07T11:35:33.809Z,99695.50
2023-01-07T11:38:00.904Z,99698.78
2023-01-07T11:40:32.191Z,99688.72
2023-01-07T11:43:17.160Z,99685.88
2023-01-07T11:46:20.254Z,99693.47
2023-01-07T11:48:52.831Z,99684.88
2023-01-07T11:51:22.569Z,99673.19
2023-01-07T11:53:49.382Z,99662.75
2023-01-07T11:56:30.465Z,99660.06
2023-01-07T11:59:15.549Z,99652.06
2023-01-07T12:01:45.872Z,99649.00
2023-01-07T12:04:33.003Z,99658.06
2023-01-07T12:07:12.955Z,99640.41
2023-01-07T12:09:42.663Z,99630.16
2023-01-07T12:12:40.035Z,99630.59
2023-01-07T12:15:20.930Z,99624.41
2023-01-07T12:18:23.109Z,99624.66
2023-01-07T12:21:14.085Z,99618.28
2023-01-07T12:24:16.457Z,99615.00
2023-01-07T12:27:31.801Z,99605.56
2023-01-07T12:30:19.879Z,99604.16
2023-01-07T12:33:18.001Z,99598.19
2023-01-07T12:35:45.630Z,99600.25
2023-01-07T12:38:40.740Z,99595.75
2023-01-07T12:41:38.990Z,99588.16
2023-01-07T12:44:21.707Z,99584.66
2023-01-07T12:47:32.569Z,99574.16
2023-01-07T12:50:06.834Z,99578.69
2023-01-07T12:52:52.949Z,99572.53
2023-01-07T12:55:24.631Z,99560.78
2023-01-07T12:58:18.760Z,99557.72
2023-01-07T13:00:59.567Z,99548.03
2023-01-07T13:04:02.709Z,99537.31
2023-01-07T13:06:59.837Z,99541.22
2023-01-07T13:09:48.260Z,99537.53
2023-01-07T13:12:46.114Z,99543.06
2023-01-07T13:15:27.030Z,99542.66
2023-01-07T13:17:56.409Z,99537.91
2023-01-07T13:20:44.261Z,99529.88
2023-01-07T13:23:40.040Z,99525.28
2023-01-07T13:26:30.870Z,99523.19
2023-01-07T13:29:31.167Z,99516.34
2023-01-07T13:32:23.031Z,99520.22
2023-01-07T13:35:20.484Z,99508.63
2023-01-07T13:38:08.164Z,99509.22
2023-01-07T13:41:01.948Z,99511.19
2023-01-07T13:43:54.028Z,99507.47
2023-01-07T13:46:31.853Z,99507.47
2023-01-07T13:48:58.920Z,99522.53
2023-01-07T13:51:33.285Z,99516.31
2023-01-07T13:54:00.887Z,99512.78
2023-01-07T13:56:27.718Z,99510.09
2023-01-07T13:58:57.194Z,99514.22
2023-01-07T14:01:32.755Z,99512.56
2023-01-07T14:04:50.667Z,99516.44
2023-01-07T14:07:19.692Z,99510.75
2023-01-07T14:09:46.767Z,99514.06
2023-01-07T14:12:48.577Z,99510.63
2023-01-07T14:15:25.063Z,99510.41
2023-01-07T14:18:28.433Z,99499.91
2023-01-07T14:21:05.651Z,99503.22
2023-01-07T14:24:07.980Z,99499.94
2023-01-07T14:26:51.445Z,99497.69
2023-01-07T14:29:47.689Z,99495.25
2023-01-07T14:32:36.511Z,99494.66
2023-01-07T14:35:34.663Z,99499.25
2023-01-07T14:38:01.804Z,99498.44
2023-01-07T14:40:34.668Z,99488.59
2023-01-07T14:43:03.020Z,99501.78
2023-01-07T14:45:42.225Z,99493.38
2023-01-07T14:48:09.025Z,99488.66
2023-01-07T14:50:51.172Z,99485.19
2023-01-07T14:53:36.039Z,99485.00
2023-01-07T14:56:46.243Z,99486.66
2023-01-07T14:59:16.770Z,99480.94
2023-01-07T15:02:10.646Z,99480.13
2023-01-07T15:05:00.302Z,99473.53
2023-01-07T15:07:34.001Z,99471.06
2023-01-07T15:10:45.776Z,99478.91
2023-01-07T15:13:37.602Z,99473.97
2023-01-07T15:16:11.456Z,99476.47
2023-01-07T15:18:53.483Z,99470.69
2023-01-07T15:21:37.283Z,99461.66
2023-01-07T15:24:56.898Z,99464.16
2023-01-07T15:28:06.020Z,99458.00
2023-01-07T15:30:47.871Z,99462.09
2023-01-07T15:33:41.766Z,99452.84
2023-01-07T15:36:15.530Z,99458.00
2023-01-07T15:38:52.706Z,99455.13
2023-01-07T15:41:40.398Z,99450.63
2023-01-07T15:44:20.433Z,99456.78
2023-01-07T15:46:47.631Z,99457.59
2023-01-07T15:49:24.365Z,99450.19
2023-01-07T15:52:00.225Z,99448.16
2023-01-07T15:54:26.992Z,99447.97
2023-01-07T15:57:20.533Z,99456.78
2023-01-07T15:59:52.029Z,99443.22
2023-01-07T16:02:27.479Z,99445.69
2023-01-07T16:04:58.938Z,99449.78
2023-01-07T16:07:40.277Z,99447.72
2023-01-07T16:10:17.787Z,99450.00
2023-01-07T16:12:50.870Z,99446.06
2023-01-07T16:15:24.517Z,99444.88
2023-01-07T16:17:56.527Z,99448.34
2023-01-07T16:20:34.689Z,99448.13
2023-01-07T16:23:22.669Z,99438.84
2023-01-07T16:26:09.137Z,99448.91
2023-01-07T16:28:42.036Z,99448.50
2023-01-07T16:31:13.237Z,99434.53
2023-01-07T16:33:42.077Z,99436.81
2023-01-07T16:36:19.883Z,99429.78
2023-01-07T16:38:52.095Z,99429.97
2023-01-07T16:41:26.512Z,99425.88
2023-01-07T16:43:58.595Z,99419.72
2023-01-07T16:46:36.938Z,99423.41
2023-01-07T16:49:21.435Z,99421.56
2023-01-07T16:52:02.741Z,99422.59
2023-01-07T16:54:37.089Z,99417.25
2023-01-07T16:57:11.145Z,99420.91
2023-01-07T16:59:53.747Z,99419.28
2023-01-07T17:02:55.243Z,99408.22
2023-01-07T17:05:27.275Z,99409.41
2023-01-07T17:08:05.531Z,99408.19
2023-01-07T17:10:35.067Z,99399.53
2023-01-07T17:13:03.038Z,99393.59
2023-01-07T17:15:32.825Z,99392.16
2023-01-07T17:18:12.035Z,99402.00
2023-01-07T17:20:51.056Z,99401.19
2023-01-07T17:23:27.082Z,99400.34
2023-01-07T17:26:17.707Z,99395.22
2023-01-07T17:29:00.488Z,99379.41
2023-01-07T17:31:28.052Z,99382.50
2023-01-07T17:33:55.844Z,99374.50
2023-01-07T17:36:25.772Z,99374.50
2023-01-07T17:38:53.487Z,99370.81
2023-01-07T17:41:41.152Z,99373.28
2023-01-07T17:44:12.448Z,99377.78
2023-01-07T17:46:40.368Z,99376.16
2023-01-07T17:49:09.903Z,99374.69
2023-01-07T17:51:41.440Z,99385.56
2023-01-07T17:54:25.328Z,99388.22
2023-01-07T17:56:52.654Z,99369.97
2023-01-07T17:59:22.993Z,99379.19
2023-01-07T18:01:52.905Z,99383.69
2023-01-07T18:04:21.362Z,99376.09
2023-01-07T18:06:48.356Z,99362.97
2023-01-07T18:09:15.324Z,99370.34
2023-01-07T18:12:05.078Z,99359.06
2023-01-07T18:14:32.603Z,99365.78
2023-01-07T18:16:59.641Z,99363.53
2023-01-07T18:19:26.748Z,99362.72
2023-01-07T18:21:53.668Z,99366.59
2023-01-07T18:24:21.520Z,99360.44
2023-01-07T18:26:48.982Z,99364.97
2023-01-07T18:29:15.940Z,99373.16
2023-01-07T18:31:44.639Z,99367.81
2023-01-07T18:34:14.232Z,99357.16
2023-01-07T18:36:41.726Z,99364.53
2023-01-07T18:39:10.304Z,99368.03
2023-01-07T18:41:39.767Z,99354.91
2023-01-07T18:44:06.919Z,99359.38
2023-01-07T18:46:34.196Z,99355.91
2023-01-07T18:49:01.333Z,99355.91
2023-01-07T18:51:28.244Z,99354.28
2023-01-07T18:53:55.150Z,99349.16
2023-01-07T18:56:22.091Z,99353.84
2023-01-07T18:58:53.435Z,99352.22
2023-01-07T19:01:21.382Z,99341.94
2023-01-07T19:03:49.178Z,99349.31
2023-01-07T19:06:16.273Z,99345.19
2023-01-07T19:08:43.251Z,99344.56
2023-01-07T19:11:13.939Z,99339.66
2023-01-07T19:13:41.610Z,99331.03
2023-01-07T19:16:12.129Z,99344.53
2023-01-07T19:18:39.804Z,99338.81
2023-01-07T19:21:10.550Z,99344.72
2023-01-07T19:23:37.632Z,99336.13
2023-01-07T19:26:08.403Z,99341.63
2023-01-07T19:28:35.502Z,99351.66
2023-01-07T19:31:06.952Z,99357.38
2023-01-07T19:33:34.494Z,99343.44
2023-01-07T19:36:27.684Z,99349.97
2023-01-07T19:38:54.886Z,99350.81
2023-01-07T19:41:23.190Z,99346.69
2023-01-07T19:43:52.151Z,99337.88
2023-01-07T19:46:19.988Z,99320.88
2023-01-07T19:48:47.663Z,99322.53
2023-01-07T19:51:15.892Z,99318.84
2023-01-07T19:53:42.852Z,99315.16
2023-01-07T19:56:12.420Z,99319.66
2023-01-07T19:58:40.183Z,99331.34
2023-01-07T20:01:17.702Z,99323.72
2023-01-07T20:03:45.546Z,99319.63
2023-01-07T20:06:15.772Z,99314.28
2023-01-07T20:08:43.339Z,99314.28
2023-01-07T20:11:11.577Z,99307.75
2023-01-07T20:13:39.764Z,99311.88
2023-01-07T20:16:10.605Z,99293.22
2023-01-07T20:18:40.085Z,99294.66
2023-01-07T20:21:08.023Z,99303.09
2023-01-07T20:23:36.988Z,99296.16
2023-01-07T20:26:08.424Z,99297.19
2023-01-07T20:28:35.537Z,99302.94
2023-01-07T20:31:08.586Z,99294.38
2023-01-07T20:33:35.910Z,99289.44
2023-01-07T20:36:11.872Z,99282.91
2023-01-07T20:38:41.891Z,99288.41
2023-01-07T20:41:13.690Z,99295.38
2023-01-07T20:43:40.650Z,99296.84
2023-01-07T20:46:08.449Z,99289.66
2023-01-07T20:48:36.202Z,99294.78
2023-01-07T20:51:08.106Z,99293.34
2023-01-07T20:53:36.673Z,99298.91
2023-01-07T20:56:04.579Z,99302.16
2023-01-07T20:58:33.927Z,99306.69
2023-01-07T21:01:13.950Z,99308.31
2023-01-07T21:03:41.981Z,99300.13
2023-01-07T21:06:12.121Z,99299.09
2023-01-07T21:08:39.272Z,99289.06
2023-01-07T21:11:16.102Z,99283.53
2023-01-07T21:13:43.374Z,99286.00
2023-01-07T21:16:10.824Z,99292.16
2023-01-07T21:18:38.143Z,99279.03
2023-01-07T21:21:20.838Z,99273.69
2023-01-07T21:23:48.631Z,99279.63
2023-01-07T21:26:16.527Z,99275.94
2023-01-07T21:28:44.408Z,99279.88
2023-01-07T21:31:13.964Z,99281.50
2023-01-07T21:33:41.629Z,99282.97
2023-01-07T21:36:17.866Z,99291.56
2023-01-07T21:38:46.719Z,99292.38
2023-01-07T21:41:16.300Z,99289.13
2023-01-07T21:43:43.931Z,99301.19
2023-01-07T21:46:11.272Z,99290.31
2023-01-07T21:48:41.462Z,99290.28
2023-01-07T21:51:18.847Z,99275.09
2023-01-07T21:53:46.139Z,99275.88
2023-01-07T21:56:17.962Z,99273.84
2023-01-07T21:58:46.099Z,99271.38
2023-01-07T22:01:13.992Z,99281.59
2023-01-07T22:03:48.927Z,99274.63
2023-01-07T22:06:20.705Z,99286.28
2023-01-07T22:08:48.431Z,99282.56
2023-01-07T22:11:17.645Z,99273.31
2023-01-07T22:13:44.688Z,99270.47
2023-01-07T22:16:11.684Z,99280.28
2023-01-07T22:18:38.823Z,99285.44
2023-01-07T22:21:05.873Z,99297.53
2023-01-07T22:23:32.800Z,99297.13
2023-01-07T22:26:08.213Z,99297.13
2023-01-07T22:28:37.164Z,99294.28
2023-01-07T22:31:26.723Z,99287.09
2023-01-07T22:33:53.984Z,99292.03
2023-01-07T22:37:03.519Z,99282.84
2023-01-07T22:39:43.705Z,99287.53
2023-01-07T22:42:30.119Z,99272.19
2023-01-07T22:45:07.698Z,99274.44
2023-01-07T22:47:39.542Z,99274.25
2023-01-07T22:50:07.838Z,99282.25
2023-01-07T22:52:36.931Z,99281.41
2023-01-07T22:55:05.061Z,99281.22
2023-01-07T22:57:33.275Z,99286.13
2023-01-07T23:00:00.531Z,99283.84
2023-01-07T23:02:28.207Z,99279.97
2023-01-07T23:04:55.208Z,99278.72
2023-01-07T23:07:22.115Z,99261.50
2023-01-07T23:09:50.844Z,99263.50
2023-01-07T23:12:18.519Z,99260.25
2023-01-07T23:14:45.424Z,99250.81
2023-01-07T23:17:12.374Z,99256.31
2023-01-07T23:19:39.300Z,99256.97
2023-01-07T23:22:06.223Z,99250.00
2023-01-07T23:24:35.408Z,99252.66
2023-01-07T23:27:02.328Z,99255.31
2023-01-07T23:29:29.267Z,99243.00
2023-01-07T23:31:56.240Z,99248.34
2023-01-07T23:34:23.417Z,99250.81
2023-01-07T23:36:50.352Z,99244.66
2023-01-07T23:39:17.556Z,99262.09
2023-01-07T23:41:45.563Z,99246.91
2023-01-07T23:44:12.577Z,99247.53
2023-01-07T23:46:39.507Z,99238.34
2023-01-07T23:49:06.572Z,99234.44
2023-01-07T23:51:33.661Z,99242.22
2023-01-07T23:54:00.598Z,99233.84
2023-01-07T23:56:27.520Z,99235.28
2023-01-07T23:58:54.465Z,99227.28
